sensor_id;sensor_type;location;lat;lon;timestamp;temperature;humidity
9201;DHT22;4635;48.686;9.008;2022-12-10T00:01:49;-0.10;1.00
9201;DHT22;4635;48.686;9.008;2022-12-10T00:04:41;-0.10;1.00
9201;DHT22;4635;48.686;9.008;2022-12-10T00:07:18;-0.10;1.00
9201;DHT22;4635;48.686;9.008;2022-12-10T00:10:03;-0.10;1.00
9201;DHT22;4635;48.686;9.008;2022-12-10T00:22:45;-0.10;1.00
9201;DHT22;4635;48.686;9.008;2022-12-10T00:25:29;-0.10;1.00
9201;DHT22;4635;48.686;9.008;2022-12-10T00:28:17;-0.10;1.00
9201;DHT22;4635;48.686;9.008;2022-12-10T00:31:03;0.00;1.00
9201;DHT22;4635;48.686;9.008;2022-12-10T00:33:55;0.00;1.00
9201;DHT22;4635;48.686;9.008;2022-12-10T00:36:47;0.10;9.80
9201;DHT22;4635;48.686;9.008;2022-12-10T00:52:23;0.10;68.00
9201;DHT22;4635;48.686;9.008;2022-12-10T00:55:05;0.10;1.00
9201;DHT22;4635;48.686;9.008;2022-12-10T00:58:03;0.10;1.00
9201;DHT22;4635;48.686;9.008;2022-12-10T01:00:48;0.10;1.00
9201;DHT22;4635;48.686;9.008;2022-12-10T01:03:33;0.10;1.00
9201;DHT22;4635;48.686;9.008;2022-12-10T01:06:24;0.10;1.00
9201;DHT22;4635;48.686;9.008;2022-12-10T01:22:04;0.10;1.00
9201;DHT22;4635;48.686;9.008;2022-12-10T01:24:49;0.20;1.00
9201;DHT22;4635;48.686;9.008;2022-12-10T01:27:33;0.20;1.00
9201;DHT22;4635;48.686;9.008;2022-12-10T01:30:16;0.10;1.00
9201;DHT22;4635;48.686;9.008;2022-12-10T01:33:06;0.20;1.00
9201;DHT22;4635;48.686;9.008;2022-12-10T01:36:03;-0.10;1.00
9201;DHT22;4635;48.686;9.008;2022-12-10T01:42:02;0.10;1.00
9201;DHT22;4635;48.686;9.008;2022-12-10T01:45:04;0.10;41.80
9201;DHT22;4635;48.686;9.008;2022-12-10T01:47:57;0.10;25.00
9201;DHT22;4635;48.686;9.008;2022-12-10T01:50:39;0.10;1.00
9201;DHT22;4635;48.686;9.008;2022-12-10T01:53:21;0.10;1.00
9201;DHT22;4635;48.686;9.008;2022-12-10T01:55:54;-0.70;1.00
9201;DHT22;4635;48.686;9.008;2022-12-10T02:11:52;0.00;1.00
9201;DHT22;4635;48.686;9.008;2022-12-10T02:14:47;-0.40;1.00
9201;DHT22;4635;48.686;9.008;2022-12-10T02:17:38;0.10;1.00
9201;DHT22;4635;48.686;9.008;2022-12-10T02:20:27;0.10;25.00
9201;DHT22;4635;48.686;9.008;2022-12-10T02:23:12;0.20;38.20
9201;DHT22;4635;48.686;9.008;2022-12-10T02:26:01;0.10;1.00
9201;DHT22;4635;48.686;9.008;2022-12-10T02:28:51;0.10;1.00
9201;DHT22;4635;48.686;9.008;2022-12-10T02:35:03;0.10;1.00
9201;DHT22;4635;48.686;9.008;2022-12-10T02:37:48;0.10;1.00
9201;DHT22;4635;48.686;9.008;2022-12-10T02:40:27;0.10;1.00
9201;DHT22;4635;48.686;9.008;2022-12-10T02:43:45;0.10;1.00
9201;DHT22;4635;48.686;9.008;2022-12-10T02:46:30;0.10;1.00
9201;DHT22;4635;48.686;9.008;2022-12-10T02:49:25;0.10;1.00
9201;DHT22;4635;48.686;9.008;2022-12-10T02:55:36;0.00;1.00
9201;DHT22;4635;48.686;9.008;2022-12-10T02:58:28;-0.20;1.00
9201;DHT22;4635;48.686;9.008;2022-12-10T03:01:25;-0.20;17.50
9201;DHT22;4635;48.686;9.008;2022-12-10T03:04:19;-0.10;1.00
9201;DHT22;4635;48.686;9.008;2022-12-10T03:07:06;0.00;1.00
9201;DHT22;4635;48.686;9.008;2022-12-10T03:09:58;0.00;1.00
9201;DHT22;4635;48.686;9.008;2022-12-10T03:19:02;0.00;17.10
9201;DHT22;4635;48.686;9.008;2022-12-10T03:21:49;0.10;1.00
9201;DHT22;4635;48.686;9.008;2022-12-10T03:24:25;0.10;1.00
9201;DHT22;4635;48.686;9.008;2022-12-10T03:27:11;0.10;1.00
9201;DHT22;4635;48.686;9.008;2022-12-10T03:30:06;0.10;1.00
9201;DHT22;4635;48.686;9.008;2022-12-10T03:32:53;0.20;1.00
9201;DHT22;4635;48.686;9.008;2022-12-10T03:48:32;0.10;1.00
9201;DHT22;4635;48.686;9.008;2022-12-10T03:51:21;0.10;1.00
9201;DHT22;4635;48.686;9.008;2022-12-10T03:54:06;0.10;1.00
9201;DHT22;4635;48.686;9.008;2022-12-10T03:56:53;0.00;1.00
9201;DHT22;4635;48.686;9.008;2022-12-10T03:59:44;0.10;1.00
9201;DHT22;4635;48.686;9.008;2022-12-10T04:02:31;0.10;1.00
9201;DHT22;4635;48.686;9.008;2022-12-10T05:05:48;-0.20;1.00
9201;DHT22;4635;48.686;9.008;2022-12-10T05:08:42;0.10;1.00
9201;DHT22;4635;48.686;9.008;2022-12-10T05:11:34;0.10;1.00
9201;DHT22;4635;48.686;9.008;2022-12-10T05:14:45;0.10;1.00
9201;DHT22;4635;48.686;9.008;2022-12-10T05:18:04;0.10;1.00
9201;DHT22;4635;48.686;9.008;2022-12-10T07:39:27;-0.80;1.00
9201;DHT22;4635;48.686;9.008;2022-12-10T07:42:14;-1.70;1.00
9201;DHT22;4635;48.686;9.008;2022-12-10T07:45:22;-0.50;1.00
9201;DHT22;4635;48.686;9.008;2022-12-10T07:48:03;-0.50;1.00
9201;DHT22;4635;48.686;9.008;2022-12-10T07:50:45;-0.50;1.00
9201;DHT22;4635;48.686;9.008;2022-12-10T07:53:58;-0.60;1.00
9201;DHT22;4635;48.686;9.008;2022-12-10T08:00:20;-0.30;1.00
9201;DHT22;4635;48.686;9.008;2022-12-10T08:03:12;-0.30;1.00
9201;DHT22;4635;48.686;9.008;2022-12-10T08:06:25;-0.30;1.00
9201;DHT22;4635;48.686;9.008;2022-12-10T08:09:11;-0.20;1.00
9201;DHT22;4635;48.686;9.008;2022-12-10T08:11:55;-0.10;1.00
9201;DHT22;4635;48.686;9.008;2022-12-10T08:14:35;-0.10;1.00
9201;DHT22;4635;48.686;9.008;2022-12-10T08:17:25;-0.60;1.00
9201;DHT22;4635;48.686;9.008;2022-12-10T08:20:00;-0.10;1.00
9201;DHT22;4635;48.686;9.008;2022-12-10T08:22:49;-0.10;1.00
9201;DHT22;4635;48.686;9.008;2022-12-10T08:25:43;0.00;1.00
9201;DHT22;4635;48.686;9.008;2022-12-10T08:31:48;-0.20;1.00
9201;DHT22;4635;48.686;9.008;2022-12-10T08:41:24;0.20;1.00
9201;DHT22;4635;48.686;9.008;2022-12-10T08:44:20;0.20;1.00
9201;DHT22;4635;48.686;9.008;2022-12-10T08:46:59;-0.20;1.00
9201;DHT22;4635;48.686;9.008;2022-12-10T08:49:44;0.00;1.00
9201;DHT22;4635;48.686;9.008;2022-12-10T08:52:21;0.10;1.00
9201;DHT22;4635;48.686;9.008;2022-12-10T08:55:10;0.10;1.00
9201;DHT22;4635;48.686;9.008;2022-12-10T08:57:56;0.10;1.00
9201;DHT22;4635;48.686;9.008;2022-12-10T09:00:47;0.20;1.00
9201;DHT22;4635;48.686;9.008;2022-12-10T09:03:31;0.00;1.00
9201;DHT22;4635;48.686;9.008;2022-12-10T09:06:22;0.10;1.00
9201;DHT22;4635;48.686;9.008;2022-12-10T09:12:06;0.10;1.00
9201;DHT22;4635;48.686;9.008;2022-12-10T09:15:17;0.20;1.00
9201;DHT22;4635;48.686;9.008;2022-12-10T09:18:38;0.20;1.00
9201;DHT22;4635;48.686;9.008;2022-12-10T09:21:19;0.20;99.90
9201;DHT22;4635;48.686;9.008;2022-12-10T09:27:35;0.20;99.90
9201;DHT22;4635;48.686;9.008;2022-12-10T09:40:15;0.20;1.00
9201;DHT22;4635;48.686;9.008;2022-12-10T09:43:18;0.20;1.00
9201;DHT22;4635;48.686;9.008;2022-12-10T09:46:26;-0.10;99.90
9201;DHT22;4635;48.686;9.008;2022-12-10T09:49:23;0.20;1.00
9201;DHT22;4635;48.686;9.008;2022-12-10T09:52:37;0.10;1.00
9201;DHT22;4635;48.686;9.008;2022-12-10T10:01:27;0.10;1.00
9201;DHT22;4635;48.686;9.008;2022-12-10T10:04:05;0.10;99.90
9201;DHT22;4635;48.686;9.008;2022-12-10T10:06:43;0.20;1.00
9201;DHT22;4635;48.686;9.008;2022-12-10T10:09:26;0.20;99.90
9201;DHT22;4635;48.686;9.008;2022-12-10T10:15:37;0.30;1.00
9201;DHT22;4635;48.686;9.008;2022-12-10T10:19:11;0.40;99.90
9201;DHT22;4635;48.686;9.008;2022-12-10T10:22:17;-0.20;1.00
9201;DHT22;4635;48.686;9.008;2022-12-10T10:28:19;0.30;1.00
9201;DHT22;4635;48.686;9.008;2022-12-10T10:31:18;0.20;99.90
9201;DHT22;4635;48.686;9.008;2022-12-10T10:34:21;0.30;1.00
9201;DHT22;4635;48.686;9.008;2022-12-10T10:36:58;0.30;88.30
9201;DHT22;4635;48.686;9.008;2022-12-10T10:39:50;0.30;99.90
9201;DHT22;4635;48.686;9.008;2022-12-10T10:42:40;0.40;1.00
9201;DHT22;4635;48.686;9.008;2022-12-10T10:48:33;0.90;1.00
9201;DHT22;4635;48.686;9.008;2022-12-10T10:51:52;1.00;1.00
9201;DHT22;4635;48.686;9.008;2022-12-10T10:54:51;1.10;99.90
9201;DHT22;4635;48.686;9.008;2022-12-10T10:57:38;0.90;99.90
9201;DHT22;4635;48.686;9.008;2022-12-10T11:00:38;1.50;1.00
9201;DHT22;4635;48.686;9.008;2022-12-10T11:03:30;1.00;1.00
9201;DHT22;4635;48.686;9.008;2022-12-10T11:06:19;0.90;99.90
9201;DHT22;4635;48.686;9.008;2022-12-10T11:12:54;1.00;1.00
9201;DHT22;4635;48.686;9.008;2022-12-10T11:15:53;1.10;99.90
9201;DHT22;4635;48.686;9.008;2022-12-10T11:19:24;1.10;1.00
9201;DHT22;4635;48.686;9.008;2022-12-10T11:22:16;1.10;1.00
9201;DHT22;4635;48.686;9.008;2022-12-10T11:25:24;1.10;99.90
9201;DHT22;4635;48.686;9.008;2022-12-10T11:28:41;1.10;99.90
9201;DHT22;4635;48.686;9.008;2022-12-10T11:31:54;0.90;1.00
9201;DHT22;4635;48.686;9.008;2022-12-10T11:38:06;0.90;1.00
9201;DHT22;4635;48.686;9.008;2022-12-10T11:41:07;1.00;1.00
9201;DHT22;4635;48.686;9.008;2022-12-10T11:44:22;1.00;99.90
9201;DHT22;4635;48.686;9.008;2022-12-10T11:47:37;1.20;1.00
9201;DHT22;4635;48.686;9.008;2022-12-10T11:50:31;1.20;66.90
9201;DHT22;4635;48.686;9.008;2022-12-10T12:08:42;1.20;1.00
9201;DHT22;4635;48.686;9.008;2022-12-10T12:11:43;1.30;1.00
9201;DHT22;4635;48.686;9.008;2022-12-10T12:14:36;1.30;1.00
9201;DHT22;4635;48.686;9.008;2022-12-10T12:17:38;0.90;1.00
9201;DHT22;4635;48.686;9.008;2022-12-10T12:20:31;1.10;52.30
9201;DHT22;4635;48.686;9.008;2022-12-10T12:23:40;1.30;99.90
9201;DHT22;4635;48.686;9.008;2022-12-10T12:26:57;1.30;99.90
9201;DHT22;4635;48.686;9.008;2022-12-10T12:31:01;1.30;99.90
9201;DHT22;4635;48.686;9.008;2022-12-10T12:34:23;1.40;99.90
9201;DHT22;4635;48.686;9.008;2022-12-10T13:04:15;1.40;99.90
9201;DHT22;4635;48.686;9.008;2022-12-10T13:07:31;1.40;1.00
9201;DHT22;4635;48.686;9.008;2022-12-10T13:17:39;1.30;58.00
9201;DHT22;4635;48.686;9.008;2022-12-10T13:20:46;1.60;1.00
9201;DHT22;4635;48.686;9.008;2022-12-10T13:27:33;1.00;1.00
9201;DHT22;4635;48.686;9.008;2022-12-10T13:30:42;0.90;15.40
9201;DHT22;4635;48.686;9.008;2022-12-10T13:33:59;1.00;1.00
9201;DHT22;4635;48.686;9.008;2022-12-10T13:40:26;1.10;1.00
9201;DHT22;4635;48.686;9.008;2022-12-10T13:43:35;1.10;1.00
9201;DHT22;4635;48.686;9.008;2022-12-10T13:46:33;1.10;1.00
9201;DHT22;4635;48.686;9.008;2022-12-10T13:49:42;1.10;1.00
9201;DHT22;4635;48.686;9.008;2022-12-10T13:52:39;0.70;99.90
9201;DHT22;4635;48.686;9.008;2022-12-10T13:55:53;1.00;99.90
9201;DHT22;4635;48.686;9.008;2022-12-10T13:59:08;0.90;1.00
9201;DHT22;4635;48.686;9.008;2022-12-10T14:04:50;0.70;1.00
9201;DHT22;4635;48.686;9.008;2022-12-10T15:18:33;0.10;99.90
9201;DHT22;4635;48.686;9.008;2022-12-10T15:24:56;0.00;99.90
9201;DHT22;4635;48.686;9.008;2022-12-10T15:28:00;0.00;99.90
9201;DHT22;4635;48.686;9.008;2022-12-10T15:32:00;0.00;99.90
9201;DHT22;4635;48.686;9.008;2022-12-10T15:51:15;-0.20;99.90
9201;DHT22;4635;48.686;9.008;2022-12-10T15:54:31;-0.30;1.00
9201;DHT22;4635;48.686;9.008;2022-12-10T15:57:43;-0.40;1.00
9201;DHT22;4635;48.686;9.008;2022-12-10T16:04:16;-0.20;1.00
9201;DHT22;4635;48.686;9.008;2022-12-10T16:17:21;-0.40;1.00
9201;DHT22;4635;48.686;9.008;2022-12-10T16:20:44;-0.50;1.00
9201;DHT22;4635;48.686;9.008;2022-12-10T16:24:16;-0.70;1.00
9201;DHT22;4635;48.686;9.008;2022-12-10T16:27:26;-0.40;1.00
9201;DHT22;4635;48.686;9.008;2022-12-10T16:31:11;-0.40;1.00
9201;DHT22;4635;48.686;9.008;2022-12-10T17:32:43;-1.10;1.00
9201;DHT22;4635;48.686;9.008;2022-12-10T17:35:39;-1.10;1.00
9201;DHT22;4635;48.686;9.008;2022-12-10T17:38:33;-1.20;1.00
9201;DHT22;4635;48.686;9.008;2022-12-10T17:44:45;-1.10;1.00
9201;DHT22;4635;48.686;9.008;2022-12-10T17:47:32;-1.70;99.90
9201;DHT22;4635;48.686;9.008;2022-12-10T17:50:58;-1.10;1.00
9201;DHT22;4635;48.686;9.008;2022-12-10T17:54:18;-1.00;1.00
9201;DHT22;4635;48.686;9.008;2022-12-10T17:57:20;-1.00;1.00
9201;DHT22;4635;48.686;9.008;2022-12-10T18:04:21;-0.90;1.00
9201;DHT22;4635;48.686;9.008;2022-12-10T18:07:41;-0.90;1.00
9201;DHT22;4635;48.686;9.008;2022-12-10T18:10:39;-1.00;1.00
9201;DHT22;4635;48.686;9.008;2022-12-10T18:13:48;-0.80;1.00
9201;DHT22;4635;48.686;9.008;2022-12-10T18:27:21;-0.90;1.00
9201;DHT22;4635;48.686;9.008;2022-12-10T18:31:12;-0.80;1.00
9201;DHT22;4635;48.686;9.008;2022-12-10T18:33:58;-0.80;1.00
9201;DHT22;4635;48.686;9.008;2022-12-10T18:37:29;-0.70;1.00
9201;DHT22;4635;48.686;9.008;2022-12-10T18:40:11;-0.70;1.00
9201;DHT22;4635;48.686;9.008;2022-12-10T18:59:51;-0.90;1.00
9201;DHT22;4635;48.686;9.008;2022-12-10T19:05:25;-0.90;1.00
9201;DHT22;4635;48.686;9.008;2022-12-10T19:08:23;-0.60;1.00
9201;DHT22;4635;48.686;9.008;2022-12-10T19:10:59;-0.90;1.00
9201;DHT22;4635;48.686;9.008;2022-12-10T19:13:45;-1.00;1.00
9201;DHT22;4635;48.686;9.008;2022-12-10T19:22:35;-1.00;1.00
9201;DHT22;4635;48.686;9.008;2022-12-10T19:25:13;-1.10;1.00
9201;DHT22;4635;48.686;9.008;2022-12-10T19:27:59;-1.00;1.00
9201;DHT22;4635;48.686;9.008;2022-12-10T19:30:49;-1.10;1.00
9201;DHT22;4635;48.686;9.008;2022-12-10T19:33:26;-1.20;1.00
9201;DHT22;4635;48.686;9.008;2022-12-10T19:36:18;-1.10;1.00
9201;DHT22;4635;48.686;9.008;2022-12-10T19:39:14;-1.10;1.00
9201;DHT22;4635;48.686;9.008;2022-12-10T19:42:20;-1.10;1.00
9201;DHT22;4635;48.686;9.008;2022-12-10T19:48:15;-1.10;1.00
9201;DHT22;4635;48.686;9.008;2022-12-10T19:51:07;-1.10;1.00
9201;DHT22;4635;48.686;9.008;2022-12-10T19:53:45;-0.30;1.00
9201;DHT22;4635;48.686;9.008;2022-12-10T19:56:39;-1.00;1.00
9201;DHT22;4635;48.686;9.008;2022-12-10T19:59:39;-1.10;1.00
9201;DHT22;4635;48.686;9.008;2022-12-10T20:02:14;-1.00;1.00
9201;DHT22;4635;48.686;9.008;2022-12-10T20:04:48;-1.10;1.00
9201;DHT22;4635;48.686;9.008;2022-12-10T20:07:44;-1.00;1.00
9201;DHT22;4635;48.686;9.008;2022-12-10T20:10:28;-1.10;1.00
9201;DHT22;4635;48.686;9.008;2022-12-10T20:13:13;-1.30;1.00
9201;DHT22;4635;48.686;9.008;2022-12-10T20:16:13;-1.00;1.00
9201;DHT22;4635;48.686;9.008;2022-12-10T20:19:08;-1.60;1.00
9201;DHT22;4635;48.686;9.008;2022-12-10T20:21:38;-0.90;1.00
9201;DHT22;4635;48.686;9.008;2022-12-10T20:24:40;-0.90;1.00
9201;DHT22;4635;48.686;9.008;2022-12-10T20:27:21;-1.00;1.00
9201;DHT22;4635;48.686;9.008;2022-12-10T20:30:31;-1.00;1.00
9201;DHT22;4635;48.686;9.008;2022-12-10T20:33:09;-1.10;1.00
9201;DHT22;4635;48.686;9.008;2022-12-10T20:35:42;-1.10;99.90
9201;DHT22;4635;48.686;9.008;2022-12-10T20:38:30;-1.10;99.90
9201;DHT22;4635;48.686;9.008;2022-12-10T20:41:07;-1.10;99.90
9201;DHT22;4635;48.686;9.008;2022-12-10T20:43:49;-1.10;99.90
9201;DHT22;4635;48.686;9.008;2022-12-10T20:46:46;-1.10;1.00
9201;DHT22;4635;48.686;9.008;2022-12-10T20:49:24;-1.00;1.00
9201;DHT22;4635;48.686;9.008;2022-12-10T20:52:14;-1.10;1.00
9201;DHT22;4635;48.686;9.008;2022-12-10T20:56:08;-1.10;1.00
9201;DHT22;4635;48.686;9.008;2022-12-10T20:58:11;-1.10;1.00
9201;DHT22;4635;48.686;9.008;2022-12-10T21:01:26;-1.10;1.00
9201;DHT22;4635;48.686;9.008;2022-12-10T21:04:18;-1.10;1.00
9201;DHT22;4635;48.686;9.008;2022-12-10T21:06:49;-1.20;1.00
9201;DHT22;4635;48.686;9.008;2022-12-10T21:09:39;-1.20;1.00
9201;DHT22;4635;48.686;9.008;2022-12-10T21:12:15;-1.10;1.00
9201;DHT22;4635;48.686;9.008;2022-12-10T21:15:04;-1.10;1.00
9201;DHT22;4635;48.686;9.008;2022-12-10T21:17:36;-1.10;1.00
9201;DHT22;4635;48.686;9.008;2022-12-10T21:20:15;-1.20;1.00
9201;DHT22;4635;48.686;9.008;2022-12-10T21:22:46;-1.20;99.90
9201;DHT22;4635;48.686;9.008;2022-12-10T21:25:18;-1.40;1.00
9201;DHT22;4635;48.686;9.008;2022-12-10T21:28:04;-1.50;1.00
9201;DHT22;4635;48.686;9.008;2022-12-10T21:30:45;-1.50;99.90
9201;DHT22;4635;48.686;9.008;2022-12-10T21:33:21;-1.70;1.00
9201;DHT22;4635;48.686;9.008;2022-12-10T21:36:01;-1.80;1.00
9201;DHT22;4635;48.686;9.008;2022-12-10T21:38:48;-1.80;1.00
9201;DHT22;4635;48.686;9.008;2022-12-10T21:41:21;-1.90;1.00
9201;DHT22;4635;48.686;9.008;2022-12-10T21:44:08;-1.90;1.00
9201;DHT22;4635;48.686;9.008;2022-12-10T21:46:40;-1.90;1.00
9201;DHT22;4635;48.686;9.008;2022-12-10T21:49:21;-2.00;1.00
9201;DHT22;4635;48.686;9.008;2022-12-10T21:51:56;-2.00;1.00
9201;DHT22;4635;48.686;9.008;2022-12-10T21:54:29;-2.00;1.00
9201;DHT22;4635;48.686;9.008;2022-12-10T21:57:03;-2.00;1.00
9201;DHT22;4635;48.686;9.008;2022-12-10T21:59:37;-1.90;1.00
9201;DHT22;4635;48.686;9.008;2022-12-10T22:02:09;-1.90;1.00
9201;DHT22;4635;48.686;9.008;2022-12-10T22:04:42;-1.90;1.00
9201;DHT22;4635;48.686;9.008;2022-12-10T22:07:24;-2.00;1.00
9201;DHT22;4635;48.686;9.008;2022-12-10T22:09:57;-2.40;1.00
9201;DHT22;4635;48.686;9.008;2022-12-10T22:12:28;-2.10;1.00
9201;DHT22;4635;48.686;9.008;2022-12-10T22:15:11;-2.20;1.00
9201;DHT22;4635;48.686;9.008;2022-12-10T22:17:59;-2.20;1.00
9201;DHT22;4635;48.686;9.008;2022-12-10T22:20:29;-2.20;1.00
9201;DHT22;4635;48.686;9.008;2022-12-10T22:23:03;-2.40;1.00
9201;DHT22;4635;48.686;9.008;2022-12-10T22:25:39;-2.40;1.00
9201;DHT22;4635;48.686;9.008;2022-12-10T22:28:17;-2.50;1.00
9201;DHT22;4635;48.686;9.008;2022-12-10T22:30:54;-2.60;1.00
9201;DHT22;4635;48.686;9.008;2022-12-10T22:33:31;-2.60;1.00
9201;DHT22;4635;48.686;9.008;2022-12-10T22:36:21;-2.60;1.00
9201;DHT22;4635;48.686;9.008;2022-12-10T22:39:04;-2.70;1.00
9201;DHT22;4635;48.686;9.008;2022-12-10T22:41:46;-2.70;1.50
9201;DHT22;4635;48.686;9.008;2022-12-10T22:44:17;-2.70;1.00
9201;DHT22;4635;48.686;9.008;2022-12-10T22:46:53;-2.70;1.00
9201;DHT22;4635;48.686;9.008;2022-12-10T22:49:27;-2.80;1.00
9201;DHT22;4635;48.686;9.008;2022-12-10T22:52:00;-2.80;1.00
9201;DHT22;4635;48.686;9.008;2022-12-10T22:54:48;-2.90;1.00
9201;DHT22;4635;48.686;9.008;2022-12-10T22:57:21;-3.00;1.00
9201;DHT22;4635;48.686;9.008;2022-12-10T23:00:12;-3.00;1.00
9201;DHT22;4635;48.686;9.008;2022-12-10T23:02:46;-3.00;1.00
9201;DHT22;4635;48.686;9.008;2022-12-10T23:05:25;-3.00;1.00
9201;DHT22;4635;48.686;9.008;2022-12-10T23:08:05;-2.60;1.00
9201;DHT22;4635;48.686;9.008;2022-12-10T23:10:44;-3.10;1.00
9201;DHT22;4635;48.686;9.008;2022-12-10T23:13:21;-3.50;1.00
9201;DHT22;4635;48.686;9.008;2022-12-10T23:15:58;-3.20;1.00
9201;DHT22;4635;48.686;9.008;2022-12-10T23:18:33;-3.20;1.00
9201;DHT22;4635;48.686;9.008;2022-12-10T23:21:18;-3.20;1.00
9201;DHT22;4635;48.686;9.008;2022-12-10T23:24:08;-4.00;6.00
9201;DHT22;4635;48.686;9.008;2022-12-10T23:26:46;-3.20;1.00
9201;DHT22;4635;48.686;9.008;2022-12-10T23:29:34;-3.20;1.00
9201;DHT22;4635;48.686;9.008;2022-12-10T23:32:27;-3.20;1.00
9201;DHT22;4635;48.686;9.008;2022-12-10T23:34:58;-3.30;1.00
9201;DHT22;4635;48.686;9.008;2022-12-10T23:37:40;-3.20;1.00
9201;DHT22;4635;48.686;9.008;2022-12-10T23:40:14;-3.40;1.00
9201;DHT22;4635;48.686;9.008;2022-12-10T23:42:50;-3.30;1.00
9201;DHT22;4635;48.686;9.008;2022-12-10T23:45:21;-3.30;1.00
9201;DHT22;4635;48.686;9.008;2022-12-10T23:47:50;-3.30;1.00
9201;DHT22;4635;48.686;9.008;2022-12-10T23:50:23;-3.30;1.00
9201;DHT22;4635;48.686;9.008;2022-12-10T23:52:57;-3.40;1.00
9201;DHT22;4635;48.686;9.008;2022-12-10T23:55:28;-3.60;1.00
9201;DHT22;4635;48.686;9.008;2022-12-10T23:58:07;-3.50;1.00
